createdAt,value
2022-08-19T00:00:11.816Z,82.09
2022-08-19T00:02:59.784Z,82.00
2022-08-19T00:05:27.751Z,82.12
2022-08-19T00:07:55.587Z,81.98
2022-08-19T00:10:25.608Z,82.13
2022-08-19T00:12:53.921Z,82.20
2022-08-19T00:15:23.024Z,82.24
2022-08-19T00:17:51.337Z,82.34
2022-08-19T00:20:22.051Z,82.41
2022-08-19T00:22:50.011Z,82.43
2022-08-19T00:25:18.179Z,82.41
2022-08-19T00:28:00.247Z,82.33
2022-08-19T00:30:31.390Z,82.35
2022-08-19T00:32:59.696Z,82.36
2022-08-19T00:35:28.433Z,82.44
2022-08-19T00:37:57.568Z,82.54
2022-08-19T00:40:26.183Z,82.55
2022-08-19T00:42:55.043Z,82.45
2022-08-19T00:45:29.259Z,82.52
2022-08-19T00:47:57.565Z,82.56
2022-08-19T00:50:25.764Z,82.72
2022-08-19T00:52:54.800Z,82.88
2022-08-19T00:55:26.669Z,82.81
2022-08-19T00:58:00.637Z,82.78
2022-08-19T01:00:29.558Z,82.80
2022-08-19T01:02:57.757Z,82.83
2022-08-19T01:05:30.001Z,82.79
2022-08-19T01:08:01.759Z,82.89
2022-08-19T01:10:40.442Z,82.95
2022-08-19T01:13:08.907Z,83.08
2022-08-19T01:15:44.965Z,83.17
2022-08-19T01:18:16.309Z,83.15
2022-08-19T01:20:44.616Z,83.27
2022-08-19T01:23:13.828Z,83.28
2022-08-19T01:25:52.404Z,83.46
2022-08-19T01:28:40.030Z,83.52
2022-08-19T01:31:27.019Z,83.58
2022-08-19T01:33:57.775Z,83.74
2022-08-19T01:36:27.161Z,83.85
2022-08-19T01:38:56.377Z,84.01
2022-08-19T01:41:24.688Z,84.07
2022-08-19T01:44:13.720Z,84.03
2022-08-19T01:46:43.516Z,83.98
2022-08-19T01:49:11.757Z,83.91
2022-08-19T01:51:40.578Z,84.05
2022-08-19T01:54:22.888Z,84.06
2022-08-19T01:57:02.618Z,84.18
2022-08-19T01:59:32.288Z,84.17
2022-08-19T02:02:00.302Z,84.13
2022-08-19T02:04:28.241Z,84.28
2022-08-19T02:06:56.277Z,84.27
2022-08-19T02:09:24.196Z,84.31
2022-08-19T02:11:52.490Z,84.38
2022-08-19T02:14:20.441Z,84.45
2022-08-19T02:16:48.903Z,84.66
2022-08-19T02:19:16.833Z,84.64
2022-08-19T02:21:45.056Z,84.54
2022-08-19T03:49:01.898Z,84.03
2022-08-19T03:51:33.987Z,84.54
2022-08-19T03:54:05.752Z,84.84
2022-08-19T03:56:36.319Z,84.99
2022-08-19T03:59:06.546Z,85.21
2022-08-19T04:01:36.413Z,85.13
2022-08-19T04:04:04.983Z,85.25
2022-08-19T04:06:36.296Z,85.46
2022-08-19T04:09:12.118Z,85.43
2022-08-19T04:11:45.102Z,85.26
2022-08-19T04:14:19.595Z,85.50
2022-08-19T04:16:49.216Z,85.63
2022-08-19T04:19:18.521Z,85.58
2022-08-19T04:21:51.416Z,85.85
2022-08-19T04:24:20.406Z,85.53
2022-08-19T04:26:49.247Z,85.61
2022-08-19T04:29:26.366Z,85.80
2022-08-19T04:31:56.664Z,85.64
2022-08-19T04:34:27.293Z,85.58
2022-08-19T04:36:57.140Z,85.60
2022-08-19T04:39:48.502Z,85.52
2022-08-19T04:42:38.463Z,85.57
2022-08-19T04:45:15.311Z,85.49
2022-08-19T04:47:48.282Z,85.50
2022-08-19T04:50:27.799Z,85.12
2022-08-19T04:52:57.513Z,85.26
2022-08-19T04:55:28.949Z,85.43
2022-08-19T04:57:56.864Z,85.58
2022-08-19T05:00:24.946Z,85.56
2022-08-19T05:02:52.967Z,85.45
2022-08-19T05:05:21.954Z,85.58
2022-08-19T05:07:49.887Z,85.46
2022-08-19T05:10:18.650Z,85.56
2022-08-19T05:12:46.811Z,85.68
2022-08-19T05:15:14.898Z,85.72
2022-08-19T05:18:02.832Z,85.60
2022-08-19T05:20:49.769Z,85.38
2022-08-19T05:23:22.167Z,85.16
2022-08-19T05:25:51.727Z,85.02
2022-08-19T05:28:21.490Z,85.08
2022-08-19T05:30:51.990Z,84.88
2022-08-19T05:33:20.399Z,85.04
2022-08-19T05:35:50.505Z,84.80
2022-08-19T05:38:18.990Z,84.95
2022-08-19T05:40:49.271Z,84.34
2022-08-19T05:43:17.818Z,84.16
2022-08-19T05:45:45.734Z,83.70
2022-08-19T05:48:14.355Z,83.48
2022-08-19T05:50:43.089Z,83.19
2022-08-19T05:53:11.130Z,83.13
2022-08-19T05:55:42.298Z,83.04
2022-08-19T05:58:11.303Z,82.92
2022-08-19T06:00:39.225Z,82.58
2022-08-19T06:03:11.392Z,82.35
2022-08-19T06:05:44.808Z,82.17
2022-08-19T06:08:33.767Z,81.97
2022-08-19T06:11:21.073Z,81.60
2022-08-19T06:13:59.717Z,81.43
2022-08-19T06:16:30.182Z,81.32
2022-08-19T06:19:01.611Z,81.26
2022-08-19T06:21:30.985Z,81.21
2022-08-19T06:23:59.767Z,80.97
2022-08-19T06:26:28.714Z,80.83
2022-08-19T06:28:56.728Z,80.55
2022-08-19T06:31:28.058Z,80.38
2022-08-19T06:33:56.302Z,80.32
2022-08-19T06:36:31.132Z,80.04
2022-08-19T06:39:00.135Z,79.96
2022-08-19T06:41:28.703Z,79.67
2022-08-19T06:43:57.426Z,79.55
2022-08-19T06:46:27.506Z,79.22
2022-08-19T06:48:55.937Z,78.54
2022-08-19T06:51:24.954Z,78.23
2022-08-19T06:53:55.684Z,77.85
2022-08-19T06:56:35.828Z,77.42
2022-08-19T06:59:07.146Z,77.14
2022-08-19T07:01:40.519Z,76.91
2022-08-19T07:04:12.111Z,76.11
2022-08-19T07:06:44.226Z,75.75
2022-08-19T07:09:18.367Z,75.32
2022-08-19T07:11:49.197Z,74.72
2022-08-19T07:14:20.291Z,74.43
2022-08-19T07:16:51.374Z,74.35
2022-08-19T07:19:20.570Z,73.84
2022-08-19T07:21:53.652Z,73.59
2022-08-19T07:24:26.226Z,73.40
2022-08-19T07:26:56.719Z,73.36
2022-08-19T07:29:25.789Z,72.87
2022-08-19T07:31:57.918Z,72.61
2022-08-19T07:34:30.424Z,72.63
2022-08-19T07:36:58.998Z,72.01
2022-08-19T07:39:30.540Z,71.79
2022-08-19T07:42:01.290Z,71.44
2022-08-19T07:44:29.508Z,71.07
2022-08-19T07:47:01.010Z,70.99
2022-08-19T07:49:29.506Z,70.82
2022-08-19T07:52:02.438Z,70.46
2022-08-19T07:54:35.342Z,70.30
2022-08-19T07:57:04.981Z,70.17
2022-08-19T07:59:32.885Z,69.85
2022-08-19T08:02:01.644Z,69.32
2022-08-19T08:04:49.819Z,69.35
2022-08-19T08:07:36.885Z,69.26
2022-08-19T08:10:20.835Z,68.77
2022-08-19T08:13:09.383Z,67.92
2022-08-19T08:15:42.872Z,67.42
2022-08-19T08:18:15.141Z,67.62
2022-08-19T08:20:43.248Z,67.11
2022-08-19T08:23:23.570Z,66.44
2022-08-19T08:25:53.490Z,66.39
2022-08-19T08:28:22.031Z,66.07
2022-08-19T08:30:51.626Z,66.13
2022-08-19T08:33:34.090Z,65.41
2022-08-19T08:36:06.175Z,65.24
2022-08-19T08:38:42.746Z,65.13
2022-08-19T08:41:38.490Z,65.77
2022-08-19T08:44:07.127Z,65.63
2022-08-19T08:46:52.772Z,65.35
2022-08-19T08:49:47.869Z,64.53
2022-08-19T08:52:33.319Z,65.17
2022-08-19T08:55:10.114Z,64.91
2022-08-19T08:57:56.181Z,64.15
2022-08-19T09:00:29.924Z,63.27
2022-08-19T09:03:16.451Z,63.39
2022-08-19T09:06:03.868Z,62.09
2022-08-19T09:08:41.329Z,60.67
2022-08-19T09:11:42.064Z,60.57
2022-08-19T09:14:51.748Z,60.07
2022-08-19T09:17:36.318Z,59.79
2022-08-19T09:20:15.688Z,60.41
2022-08-19T09:22:47.698Z,60.23
2022-08-19T09:25:26.702Z,59.65
2022-08-19T09:28:02.733Z,59.66
2022-08-19T09:30:42.912Z,59.87
2022-08-19T09:33:10.783Z,58.35
2022-08-19T09:35:49.798Z,58.08
2022-08-19T09:38:22.643Z,57.22
2022-08-19T09:40:51.040Z,57.04
2022-08-19T09:43:32.952Z,56.17
2022-08-19T09:46:06.674Z,55.89
2022-08-19T09:48:37.236Z,56.41
2022-08-19T09:51:17.694Z,55.25
2022-08-19T09:53:46.797Z,55.30
2022-08-19T09:56:16.204Z,55.34
2022-08-19T09:58:48.310Z,55.96
2022-08-19T10:01:21.840Z,55.89
2022-08-19T10:03:55.885Z,55.89
2022-08-19T10:06:43.873Z,55.16
2022-08-19T10:09:18.007Z,55.10
2022-08-19T10:12:04.065Z,54.67
2022-08-19T10:14:32.767Z,55.11
2022-08-19T10:17:04.696Z,55.01
2022-08-19T10:19:55.405Z,55.00
2022-08-19T10:22:25.600Z,55.24
2022-08-19T10:24:54.271Z,54.85
2022-08-19T10:27:22.825Z,54.65
2022-08-19T10:29:51.212Z,54.96
2022-08-19T10:32:19.465Z,55.15
2022-08-19T10:35:09.366Z,54.95
2022-08-19T10:37:57.544Z,54.48
2022-08-19T10:40:29.095Z,54.75
2022-08-19T10:42:57.177Z,54.98
2022-08-19T10:45:29.852Z,54.15
2022-08-19T10:48:01.096Z,53.84
2022-08-19T10:50:53.379Z,53.83
2022-08-19T10:53:26.773Z,54.00
2022-08-19T10:56:14.354Z,53.87
2022-08-19T10:59:10.610Z,54.68
2022-08-19T11:01:46.947Z,54.66
2022-08-19T11:04:28.884Z,54.92
2022-08-19T11:07:07.882Z,54.94
2022-08-19T11:09:40.963Z,54.53
2022-08-19T11:12:25.789Z,54.43
2022-08-19T11:15:18.510Z,54.72
2022-08-19T11:18:13.358Z,54.49
2022-08-19T11:21:22.341Z,55.14
2022-08-19T11:23:53.725Z,54.86
2022-08-19T11:26:22.917Z,55.12
2022-08-19T11:28:55.704Z,55.28
2022-08-19T11:31:34.167Z,55.07
2022-08-19T11:34:04.853Z,55.27
2022-08-19T11:36:48.337Z,54.43
2022-08-19T11:39:19.060Z,54.88
2022-08-19T11:41:47.808Z,54.83
2022-08-19T11:44:16.438Z,54.82
2022-08-19T11:46:47.700Z,54.70
2022-08-19T11:49:20.142Z,54.80
2022-08-19T11:51:51.106Z,54.02
2022-08-19T11:54:19.247Z,53.70
2022-08-19T11:57:18.075Z,53.68
2022-08-19T12:00:22.785Z,54.22
2022-08-19T12:02:50.896Z,53.89
2022-08-19T12:05:18.886Z,53.54
2022-08-19T12:08:09.327Z,52.88
2022-08-19T12:10:58.481Z,53.00
2022-08-19T12:13:26.734Z,53.02
2022-08-19T12:15:55.179Z,52.81
2022-08-19T12:18:23.921Z,52.38
2022-08-19T12:20:53.608Z,51.48
2022-08-19T12:23:22.122Z,51.88
2022-08-19T12:25:52.630Z,51.62
2022-08-19T12:28:23.948Z,50.97
2022-08-19T12:30:52.438Z,50.76
2022-08-19T12:33:25.129Z,51.13
2022-08-19T12:35:53.504Z,51.13
2022-08-19T12:38:24.718Z,51.40
2022-08-19T12:40:56.007Z,51.54
2022-08-19T12:43:26.355Z,51.59
2022-08-19T12:45:55.349Z,51.69
2022-08-19T12:48:33.674Z,51.98
2022-08-19T12:51:12.111Z,50.97
2022-08-19T12:53:40.925Z,51.07
2022-08-19T12:56:12.582Z,50.76
2022-08-19T12:58:50.318Z,50.52
2022-08-19T13:01:23.149Z,50.73
2022-08-19T13:03:53.656Z,50.91
2022-08-19T13:06:22.627Z,50.66
2022-08-19T13:08:51.096Z,50.75
2022-08-19T13:11:21.958Z,50.73
2022-08-19T13:13:52.162Z,50.41
2022-08-19T13:16:21.426Z,50.20
2022-08-19T13:18:53.061Z,50.10
2022-08-19T13:21:23.940Z,50.39
2022-08-19T13:23:53.436Z,50.66
2022-08-19T13:26:22.430Z,50.55
2022-08-19T13:29:09.407Z,49.90
2022-08-19T13:31:59.437Z,49.39
2022-08-19T13:34:35.120Z,49.44
2022-08-19T13:37:04.709Z,48.98
2022-08-19T13:39:34.144Z,49.22
2022-08-19T13:42:03.490Z,49.32
2022-08-19T13:44:33.025Z,49.37
2022-08-19T13:47:08.244Z,49.22
2022-08-19T13:49:37.474Z,48.97
2022-08-19T13:52:07.019Z,49.10
2022-08-19T13:54:34.846Z,49.12
2022-08-19T13:57:02.785Z,49.26
2022-08-19T13:59:30.710Z,48.90
2022-08-19T14:02:00.566Z,48.95
2022-08-19T14:04:28.887Z,49.12
2022-08-19T14:06:56.751Z,49.32
2022-08-19T14:09:24.622Z,49.14
2022-08-19T14:11:52.591Z,49.25
2022-08-19T14:14:20.602Z,49.51
2022-08-19T14:16:49.514Z,49.53
2022-08-19T14:19:17.366Z,49.47
2022-08-19T14:21:45.229Z,49.28
2022-08-19T14:24:13.350Z,48.97
2022-08-19T14:26:41.376Z,48.49
2022-08-19T14:29:09.131Z,48.30
2022-08-19T14:31:37.034Z,48.52
2022-08-19T14:34:05.240Z,48.72
2022-08-19T14:36:39.005Z,48.47
2022-08-19T14:39:07.381Z,48.46
2022-08-19T14:41:35.411Z,48.32
2022-08-19T14:44:03.295Z,48.27
2022-08-19T14:46:31.286Z,48.48
2022-08-19T14:48:59.924Z,48.65
2022-08-19T14:51:28.227Z,48.68
2022-08-19T14:53:56.589Z,48.19
2022-08-19T14:56:27.822Z,48.17
2022-08-19T14:58:56.383Z,47.98
2022-08-19T15:01:24.645Z,47.90
2022-08-19T15:04:12.660Z,47.53
2022-08-19T15:06:41.090Z,47.55
2022-08-19T15:09:10.208Z,47.34
2022-08-19T15:11:39.497Z,47.60
2022-08-19T15:14:08.084Z,47.67
2022-08-19T15:16:36.881Z,47.44
2022-08-19T15:19:07.580Z,47.25
2022-08-19T15:21:35.973Z,47.08
2022-08-19T15:24:06.104Z,47.17
2022-08-19T15:26:33.994Z,46.95
2022-08-19T15:29:03.404Z,46.80
2022-08-19T15:31:38.323Z,46.61
2022-08-19T15:34:07.865Z,46.41
2022-08-19T15:36:37.170Z,46.04
2022-08-19T15:39:07.688Z,45.90
2022-08-19T15:41:37.261Z,46.35
2022-08-19T15:44:10.277Z,46.47
2022-08-19T15:46:40.994Z,46.38
2022-08-19T15:49:10.484Z,46.15
2022-08-19T15:51:41.294Z,46.37
2022-08-19T15:54:13.050Z,46.52
2022-08-19T15:56:59.735Z,46.72
2022-08-19T15:59:47.766Z,47.17
2022-08-19T16:02:37.387Z,47.45
2022-08-19T16:05:27.588Z,47.75
2022-08-19T16:07:56.966Z,47.70
2022-08-19T16:10:27.256Z,47.64
2022-08-19T16:12:57.980Z,47.48
2022-08-19T16:15:28.027Z,47.65
2022-08-19T16:17:58.056Z,47.73
2022-08-19T16:20:28.088Z,47.86
2022-08-19T16:22:58.589Z,47.89
2022-08-19T16:25:29.458Z,47.96
2022-08-19T16:28:07.719Z,48.25
2022-08-19T16:30:39.123Z,48.28
2022-08-19T16:33:08.530Z,48.71
2022-08-19T16:35:37.023Z,49.12
2022-08-19T16:38:07.231Z,49.20
2022-08-19T16:40:35.946Z,49.40
2022-08-19T16:43:04.818Z,49.68
2022-08-19T16:45:32.973Z,50.06
2022-08-19T16:48:00.847Z,50.47
2022-08-19T16:50:48.385Z,50.52
2022-08-19T16:53:25.800Z,50.90
2022-08-19T16:55:58.523Z,51.16
2022-08-19T16:58:29.626Z,51.53
2022-08-19T17:01:03.236Z,51.42
2022-08-19T17:03:35.995Z,51.63
2022-08-19T17:06:26.154Z,51.65
2022-08-19T17:08:58.858Z,51.84
2022-08-19T17:11:28.716Z,51.84
2022-08-19T17:13:59.107Z,51.96
2022-08-19T17:16:29.788Z,52.12
2022-08-19T17:18:59.854Z,52.19
2022-08-19T17:21:32.508Z,52.19
2022-08-19T17:24:01.996Z,52.34
2022-08-19T17:26:30.630Z,52.59
2022-08-19T17:29:00.426Z,52.70
2022-08-19T17:31:33.744Z,52.85
2022-08-19T17:34:03.607Z,52.97
2022-08-19T17:36:34.234Z,53.03
2022-08-19T17:39:05.060Z,53.22
2022-08-19T17:41:34.552Z,53.43
2022-08-19T17:44:03.980Z,53.44
2022-08-19T17:46:32.563Z,53.66
2022-08-19T17:49:00.960Z,53.85
2022-08-19T17:51:36.088Z,53.97
2022-08-19T17:54:06.808Z,54.14
2022-08-19T17:56:34.745Z,54.13
2022-08-19T17:59:02.782Z,54.34
2022-08-19T18:01:44.018Z,54.49
2022-08-19T18:04:25.300Z,54.66
2022-08-19T18:06:55.833Z,54.88
2022-08-19T18:09:30.043Z,55.23
2022-08-19T18:12:13.296Z,55.18
2022-08-19T18:14:46.293Z,55.31
2022-08-19T18:17:18.284Z,55.53
2022-08-19T18:19:47.827Z,55.60
2022-08-19T18:22:29.920Z,55.70
2022-08-19T18:24:58.709Z,55.77
2022-08-19T18:27:27.853Z,55.97
2022-08-19T18:29:59.587Z,56.08
2022-08-19T18:32:34.088Z,56.19
2022-08-19T18:35:05.033Z,56.25
2022-08-19T18:37:33.048Z,56.44
2022-08-19T18:40:30.172Z,56.66
2022-08-19T18:43:17.008Z,56.63
2022-08-19T18:46:03.877Z,56.74
2022-08-19T18:48:55.101Z,56.82
2022-08-19T18:51:28.152Z,56.87
2022-08-19T18:53:58.988Z,57.04
2022-08-19T18:56:32.576Z,57.03
2022-08-19T18:59:03.969Z,57.08
2022-08-19T19:01:39.910Z,57.12
2022-08-19T19:04:12.309Z,57.14
2022-08-19T19:06:42.795Z,57.25
2022-08-19T19:09:19.678Z,57.24
2022-08-19T19:12:01.685Z,57.36
2022-08-19T19:14:49.110Z,57.43
2022-08-19T19:17:18.419Z,57.37
2022-08-19T19:19:50.126Z,57.47
2022-08-19T19:22:21.924Z,57.52
2022-08-19T19:24:50.938Z,57.46
2022-08-19T19:27:23.549Z,57.47
2022-08-19T19:29:56.929Z,57.51
2022-08-19T19:32:36.928Z,57.52
2022-08-19T19:35:10.602Z,57.58
2022-08-19T19:37:38.718Z,57.64
2022-08-19T19:40:07.425Z,57.60
2022-08-19T19:42:35.414Z,57.63
2022-08-19T19:45:03.900Z,57.75
2022-08-19T19:47:32.091Z,57.66
2022-08-19T19:50:16.407Z,57.68
2022-08-19T19:52:50.979Z,57.71
2022-08-19T19:55:20.172Z,57.84
2022-08-19T19:57:49.801Z,57.84
2022-08-19T20:00:19.293Z,57.98
2022-08-19T20:02:50.379Z,58.01
2022-08-19T20:05:21.722Z,58.09
2022-08-19T20:08:11.655Z,58.20
2022-08-19T20:10:42.577Z,58.24
2022-08-19T20:13:11.160Z,58.36
2022-08-19T20:15:43.664Z,58.43
2022-08-19T20:18:14.671Z,58.63
2022-08-19T20:20:43.744Z,58.70
2022-08-19T20:23:11.633Z,58.84
2022-08-19T20:25:39.693Z,59.03
2022-08-19T20:28:09.989Z,59.16
2022-08-19T20:30:43.761Z,59.15
2022-08-19T20:33:15.559Z,59.31
2022-08-19T20:35:45.733Z,59.41
2022-08-19T20:38:13.852Z,59.47
2022-08-19T20:40:41.911Z,59.50
2022-08-19T20:43:12.189Z,59.58
2022-08-19T20:45:40.635Z,59.68
2022-08-19T20:48:10.606Z,59.83
2022-08-19T20:50:39.735Z,59.85
2022-08-19T20:53:17.637Z,59.87
2022-08-19T20:55:52.024Z,59.95
2022-08-19T20:58:23.078Z,60.03
2022-08-19T21:00:55.933Z,60.08
2022-08-19T21:03:27.786Z,60.09
2022-08-19T21:05:57.142Z,60.16
2022-08-19T21:08:27.812Z,60.22
2022-08-19T21:10:57.022Z,60.23
2022-08-19T21:13:26.095Z,60.35
2022-08-19T21:15:54.310Z,60.32
2022-08-19T21:18:23.784Z,60.40
2022-08-19T21:20:52.030Z,60.41
2022-08-19T21:23:27.351Z,60.48
2022-08-19T21:25:58.410Z,60.58
2022-08-19T21:28:34.275Z,60.65
2022-08-19T21:31:10.610Z,60.68
2022-08-19T21:33:39.019Z,60.67
2022-08-19T21:36:07.612Z,60.82
2022-08-19T21:38:36.464Z,60.83
2022-08-19T21:41:06.544Z,60.89
2022-08-19T21:43:36.564Z,60.97
2022-08-19T21:46:05.593Z,61.02
2022-08-19T21:48:33.869Z,61.04
2022-08-19T21:51:01.711Z,61.14
2022-08-19T21:53:34.158Z,61.11
2022-08-19T21:56:04.073Z,61.28
2022-08-19T21:58:32.245Z,61.28
2022-08-19T22:01:02.183Z,61.35
2022-08-19T22:03:31.138Z,61.37
2022-08-19T22:05:59.125Z,61.45
2022-08-19T22:08:27.415Z,61.48
2022-08-19T22:10:55.437Z,61.64
2022-08-19T22:13:24.850Z,61.67
2022-08-19T22:15:55.183Z,61.72
2022-08-19T22:18:23.081Z,61.82
2022-08-19T22:20:51.365Z,61.91
2022-08-19T22:23:19.510Z,62.02
2022-08-19T22:25:48.887Z,62.00
2022-08-19T22:28:18.971Z,62.15
2022-08-19T22:30:56.404Z,62.16
2022-08-19T22:33:26.363Z,62.30
2022-08-19T22:35:54.220Z,62.36
2022-08-19T22:38:23.159Z,62.49
2022-08-19T22:40:52.753Z,62.56
2022-08-19T22:43:24.889Z,62.68
2022-08-19T22:45:55.264Z,62.68
2022-08-19T22:48:26.065Z,62.88
2022-08-19T22:51:13.933Z,62.88
2022-08-19T22:53:45.741Z,63.20
2022-08-19T22:56:17.611Z,63.31
2022-08-19T22:58:47.235Z,63.36
2022-08-19T23:01:24.878Z,63.62
2022-08-19T23:04:03.619Z,63.85
2022-08-19T23:06:34.644Z,64.17
2022-08-19T23:09:07.308Z,64.40
2022-08-19T23:11:41.953Z,64.20
2022-08-19T23:14:11.454Z,64.97
2022-08-19T23:16:41.689Z,65.10
2022-08-19T23:19:10.697Z,65.08
2022-08-19T23:21:41.589Z,64.96
2022-08-19T23:24:10.132Z,65.14
2022-08-19T23:26:38.530Z,65.55
2022-08-19T23:29:25.418Z,65.89
2022-08-19T23:31:53.760Z,65.75
2022-08-19T23:34:22.255Z,65.65
2022-08-19T23:36:50.998Z,65.70
2022-08-19T23:39:19.534Z,65.89
2022-08-19T23:41:47.966Z,66.44
2022-08-19T23:44:15.803Z,66.57
2022-08-19T23:46:54.779Z,66.61
2022-08-19T23:49:25.223Z,67.26
2022-08-19T23:51:54.857Z,67.30
2022-08-19T23:54:32.024Z,67.61
2022-08-19T23:57:13.204Z,67.71
2022-08-19T23:59:45.774Z,67.89
